sensor_id;sensor_type;location;lat;lon;timestamp;pressure;altitude;pressure_sealevel;temperature;humidity
46574;BME280;32299;53.366;-1.544;2022-11-23T00:02:17;96346.25;;;8.75;47.12
46574;BME280;32299;53.366;-1.544;2022-11-23T00:04:44;96343.62;;;8.65;47.25
46574;BME280;32299;53.366;-1.544;2022-11-23T00:07:11;96342.89;;;8.65;47.24
46574;BME280;32299;53.366;-1.544;2022-11-23T00:09:38;96336.14;;;8.63;47.31
46574;BME280;32299;53.366;-1.544;2022-11-23T00:12:05;96331.00;;;8.60;47.29
46574;BME280;32299;53.366;-1.544;2022-11-23T00:14:32;96333.80;;;8.85;47.31
46574;BME280;32299;53.366;-1.544;2022-11-23T00:17:00;96330.22;;;8.57;47.25
46574;BME280;32299;53.366;-1.544;2022-11-23T00:19:27;96328.81;;;8.54;47.26
46574;BME280;32299;53.366;-1.544;2022-11-23T00:21:54;96325.05;;;8.56;47.17
46574;BME280;32299;53.366;-1.544;2022-11-23T00:24:22;96326.21;;;8.48;47.22
46574;BME280;32299;53.366;-1.544;2022-11-23T00:26:49;96325.23;;;8.47;47.33
46574;BME280;32299;53.366;-1.544;2022-11-23T00:29:16;96320.13;;;8.44;47.32
46574;BME280;32299;53.366;-1.544;2022-11-23T00:31:43;96314.39;;;8.43;47.37
46574;BME280;32299;53.366;-1.544;2022-11-23T00:34:10;96310.93;;;8.69;47.40
46574;BME280;32299;53.366;-1.544;2022-11-23T00:36:37;96311.01;;;8.69;47.40
46574;BME280;32299;53.366;-1.544;2022-11-23T00:39:05;96306.75;;;8.42;47.43
46574;BME280;32299;53.366;-1.544;2022-11-23T00:41:32;96311.63;;;8.40;47.42
46574;BME280;32299;53.366;-1.544;2022-11-23T00:43:59;96312.44;;;8.71;47.38
46574;BME280;32299;53.366;-1.544;2022-11-23T00:46:27;96310.35;;;8.63;47.38
46574;BME280;32299;53.366;-1.544;2022-11-23T00:48:56;96307.75;;;8.37;47.32
46574;BME280;32299;53.366;-1.544;2022-11-23T00:51:25;96309.60;;;8.34;47.32
46574;BME280;32299;53.366;-1.544;2022-11-23T00:53:53;96314.92;;;8.33;47.29
46574;BME280;32299;53.366;-1.544;2022-11-23T00:56:20;96310.70;;;8.81;47.23
46574;BME280;32299;53.366;-1.544;2022-11-23T00:58:48;96309.39;;;8.55;47.27
46574;BME280;32299;53.366;-1.544;2022-11-23T01:01:16;96307.88;;;8.30;47.20
46574;BME280;32299;53.366;-1.544;2022-11-23T01:03:46;96309.34;;;8.25;47.17
46574;BME280;32299;53.366;-1.544;2022-11-23T01:06:15;96307.67;;;8.49;47.24
46574;BME280;32299;53.366;-1.544;2022-11-23T01:08:47;96305.17;;;8.60;47.06
46574;BME280;32299;53.366;-1.544;2022-11-23T01:11:14;96299.77;;;8.54;47.06
46574;BME280;32299;53.366;-1.544;2022-11-23T01:13:42;96296.88;;;8.15;47.21
46574;BME280;32299;53.366;-1.544;2022-11-23T01:16:13;96296.48;;;8.44;47.22
46574;BME280;32299;53.366;-1.544;2022-11-23T01:18:41;96291.35;;;8.34;47.36
46574;BME280;32299;53.366;-1.544;2022-11-23T01:21:08;96284.13;;;8.33;47.39
46574;BME280;32299;53.366;-1.544;2022-11-23T01:23:35;96283.94;;;8.55;47.44
46574;BME280;32299;53.366;-1.544;2022-11-23T01:26:04;96281.71;;;8.35;47.39
46574;BME280;32299;53.366;-1.544;2022-11-23T01:28:32;96278.41;;;8.05;47.41
46574;BME280;32299;53.366;-1.544;2022-11-23T01:31:03;96279.62;;;8.57;47.40
46574;BME280;32299;53.366;-1.544;2022-11-23T01:33:31;96273.11;;;8.02;47.45
46574;BME280;32299;53.366;-1.544;2022-11-23T01:35:58;96265.56;;;8.29;47.48
46574;BME280;32299;53.366;-1.544;2022-11-23T01:38:25;96259.28;;;8.02;47.43
46574;BME280;32299;53.366;-1.544;2022-11-23T01:40:52;96256.12;;;8.54;47.39
46574;BME280;32299;53.366;-1.544;2022-11-23T01:43:19;96256.59;;;8.00;47.43
46574;BME280;32299;53.366;-1.544;2022-11-23T01:45:57;96251.84;;;8.50;47.39
46574;BME280;32299;53.366;-1.544;2022-11-23T01:48:32;96251.40;;;8.45;47.46
46574;BME280;32299;53.366;-1.544;2022-11-23T01:51:01;96249.94;;;8.45;47.50
46574;BME280;32299;53.366;-1.544;2022-11-23T01:53:36;96244.52;;;8.43;47.51
46574;BME280;32299;53.366;-1.544;2022-11-23T01:56:06;96240.82;;;8.40;47.60
46574;BME280;32299;53.366;-1.544;2022-11-23T01:58:36;96238.96;;;8.43;47.54
46574;BME280;32299;53.366;-1.544;2022-11-23T02:01:06;96237.58;;;8.20;47.61
46574;BME280;32299;53.366;-1.544;2022-11-23T02:03:35;96228.68;;;8.20;47.52
46574;BME280;32299;53.366;-1.544;2022-11-23T02:06:08;96231.03;;;8.37;47.71
46574;BME280;32299;53.366;-1.544;2022-11-23T02:08:37;96231.04;;;8.19;47.52
46574;BME280;32299;53.366;-1.544;2022-11-23T02:11:05;96229.66;;;8.17;47.72
46574;BME280;32299;53.366;-1.544;2022-11-23T02:13:33;96234.76;;;7.90;47.83
46574;BME280;32299;53.366;-1.544;2022-11-23T02:16:00;96232.25;;;8.18;47.59
46574;BME280;32299;53.366;-1.544;2022-11-23T02:18:30;96228.40;;;8.21;47.83
46574;BME280;32299;53.366;-1.544;2022-11-23T02:20:58;96226.71;;;8.21;47.97
46574;BME280;32299;53.366;-1.544;2022-11-23T02:23:33;96218.35;;;8.23;47.79
46574;BME280;32299;53.366;-1.544;2022-11-23T02:26:08;96217.40;;;8.27;47.80
46574;BME280;32299;53.366;-1.544;2022-11-23T02:28:41;96206.23;;;8.39;48.14
46574;BME280;32299;53.366;-1.544;2022-11-23T02:31:09;96199.28;;;8.43;48.07
46574;BME280;32299;53.366;-1.544;2022-11-23T02:33:36;96200.45;;;8.44;48.06
46574;BME280;32299;53.366;-1.544;2022-11-23T02:36:29;96197.89;;;8.43;48.05
46574;BME280;32299;53.366;-1.544;2022-11-23T02:38:59;96190.54;;;8.02;47.91
46574;BME280;32299;53.366;-1.544;2022-11-23T02:41:32;96188.86;;;8.53;47.92
46574;BME280;32299;53.366;-1.544;2022-11-23T02:44:00;96185.24;;;8.48;47.97
46574;BME280;32299;53.366;-1.544;2022-11-23T02:46:29;96184.19;;;8.09;47.84
46574;BME280;32299;53.366;-1.544;2022-11-23T02:48:56;96181.14;;;8.29;47.96
46574;BME280;32299;53.366;-1.544;2022-11-23T02:51:23;96174.50;;;8.33;47.93
46574;BME280;32299;53.366;-1.544;2022-11-23T02:53:50;96169.74;;;8.58;47.87
46574;BME280;32299;53.366;-1.544;2022-11-23T02:56:17;96166.26;;;8.05;47.98
46574;BME280;32299;53.366;-1.544;2022-11-23T02:58:44;96158.29;;;8.67;47.76
46574;BME280;32299;53.366;-1.544;2022-11-23T03:01:11;96155.30;;;8.62;47.84
46574;BME280;32299;53.366;-1.544;2022-11-23T03:03:38;96153.28;;;8.37;47.94
46574;BME280;32299;53.366;-1.544;2022-11-23T03:06:05;96155.58;;;8.38;47.92
46574;BME280;32299;53.366;-1.544;2022-11-23T03:08:32;96153.20;;;8.16;47.82
46574;BME280;32299;53.366;-1.544;2022-11-23T03:11:00;96149.67;;;8.38;47.99
46574;BME280;32299;53.366;-1.544;2022-11-23T03:13:28;96150.93;;;8.45;47.92
46574;BME280;32299;53.366;-1.544;2022-11-23T03:15:55;96152.60;;;8.66;47.92
46574;BME280;32299;53.366;-1.544;2022-11-23T03:18:23;96154.43;;;8.18;47.92
46574;BME280;32299;53.366;-1.544;2022-11-23T03:20:50;96152.55;;;8.47;47.91
46574;BME280;32299;53.366;-1.544;2022-11-23T03:23:18;96150.91;;;8.76;47.76
46574;BME280;32299;53.366;-1.544;2022-11-23T03:25:47;96153.77;;;8.29;47.72
46574;BME280;32299;53.366;-1.544;2022-11-23T03:28:20;96149.64;;;8.54;47.64
46574;BME280;32299;53.366;-1.544;2022-11-23T03:30:47;96141.54;;;8.50;47.74
46574;BME280;32299;53.366;-1.544;2022-11-23T03:33:14;96135.70;;;8.20;47.95
46574;BME280;32299;53.366;-1.544;2022-11-23T03:35:42;96126.84;;;8.74;47.83
46574;BME280;32299;53.366;-1.544;2022-11-23T03:38:09;96133.32;;;8.74;47.80
46574;BME280;32299;53.366;-1.544;2022-11-23T03:40:37;96130.17;;;8.49;47.93
46574;BME280;32299;53.366;-1.544;2022-11-23T03:43:05;96126.84;;;8.27;47.80
46574;BME280;32299;53.366;-1.544;2022-11-23T03:45:33;96117.52;;;8.26;47.80
46574;BME280;32299;53.366;-1.544;2022-11-23T03:48:00;96111.52;;;8.27;47.86
46574;BME280;32299;53.366;-1.544;2022-11-23T03:50:27;96110.37;;;8.58;47.88
46574;BME280;32299;53.366;-1.544;2022-11-23T03:52:54;96103.33;;;8.77;47.85
46574;BME280;32299;53.366;-1.544;2022-11-23T03:55:21;96103.13;;;8.83;47.82
46574;BME280;32299;53.366;-1.544;2022-11-23T03:57:49;96100.61;;;8.54;47.93
46574;BME280;32299;53.366;-1.544;2022-11-23T04:00:16;96096.96;;;8.52;47.90
46574;BME280;32299;53.366;-1.544;2022-11-23T04:02:44;96089.26;;;8.31;47.85
46574;BME280;32299;53.366;-1.544;2022-11-23T04:05:12;96083.38;;;8.61;47.72
46574;BME280;32299;53.366;-1.544;2022-11-23T04:07:39;96083.97;;;8.80;47.90
46574;BME280;32299;53.366;-1.544;2022-11-23T04:10:13;96084.47;;;8.79;47.94
46574;BME280;32299;53.366;-1.544;2022-11-23T04:12:40;96080.49;;;8.38;48.38
46574;BME280;32299;53.366;-1.544;2022-11-23T04:15:08;96075.51;;;8.45;48.27
46574;BME280;32299;53.366;-1.544;2022-11-23T04:17:35;96074.50;;;8.72;48.15
46574;BME280;32299;53.366;-1.544;2022-11-23T04:20:04;96070.21;;;8.74;48.34
46574;BME280;32299;53.366;-1.544;2022-11-23T04:22:32;96067.94;;;8.53;48.38
46574;BME280;32299;53.366;-1.544;2022-11-23T04:24:59;96069.01;;;8.16;48.68
46574;BME280;32299;53.366;-1.544;2022-11-23T04:27:26;96067.01;;;8.73;48.58
46574;BME280;32299;53.366;-1.544;2022-11-23T04:29:54;96059.33;;;8.31;48.47
46574;BME280;32299;53.366;-1.544;2022-11-23T04:32:21;96040.79;;;8.76;48.74
46574;BME280;32299;53.366;-1.544;2022-11-23T04:34:48;96033.74;;;8.36;48.58
46574;BME280;32299;53.366;-1.544;2022-11-23T04:37:16;96036.87;;;8.61;48.77
46574;BME280;32299;53.366;-1.544;2022-11-23T04:39:43;96038.96;;;8.35;48.71
46574;BME280;32299;53.366;-1.544;2022-11-23T04:42:11;96030.71;;;8.31;48.96
46574;BME280;32299;53.366;-1.544;2022-11-23T04:44:38;96030.34;;;8.57;49.08
46574;BME280;32299;53.366;-1.544;2022-11-23T04:47:06;96024.05;;;8.63;49.06
46574;BME280;32299;53.366;-1.544;2022-11-23T04:49:33;96025.55;;;8.49;48.74
46574;BME280;32299;53.366;-1.544;2022-11-23T04:52:01;96012.95;;;8.43;48.98
46574;BME280;32299;53.366;-1.544;2022-11-23T04:54:28;95994.44;;;9.04;48.70
46574;BME280;32299;53.366;-1.544;2022-11-23T04:56:55;95994.93;;;8.44;49.03
46574;BME280;32299;53.366;-1.544;2022-11-23T04:59:23;96003.04;;;8.76;48.98
46574;BME280;32299;53.366;-1.544;2022-11-23T05:01:50;96000.36;;;8.75;49.03
46574;BME280;32299;53.366;-1.544;2022-11-23T05:04:18;95991.96;;;8.78;49.02
46574;BME280;32299;53.366;-1.544;2022-11-23T05:06:45;95986.57;;;8.85;48.90
46574;BME280;32299;53.366;-1.544;2022-11-23T05:09:12;95986.62;;;8.58;48.93
46574;BME280;32299;53.366;-1.544;2022-11-23T05:11:39;95976.97;;;8.57;48.70
46574;BME280;32299;53.366;-1.544;2022-11-23T05:14:06;95976.55;;;8.59;48.83
46574;BME280;32299;53.366;-1.544;2022-11-23T05:16:34;95972.14;;;8.89;48.67
46574;BME280;32299;53.366;-1.544;2022-11-23T05:19:01;95965.47;;;8.57;48.80
46574;BME280;32299;53.366;-1.544;2022-11-23T05:21:28;95960.46;;;8.62;48.64
46574;BME280;32299;53.366;-1.544;2022-11-23T05:23:55;95964.26;;;8.53;48.67
46574;BME280;32299;53.366;-1.544;2022-11-23T05:26:22;95955.81;;;8.47;48.90
46574;BME280;32299;53.366;-1.544;2022-11-23T05:28:49;95952.78;;;8.86;48.52
46574;BME280;32299;53.366;-1.544;2022-11-23T05:31:17;95936.81;;;8.51;48.79
46574;BME280;32299;53.366;-1.544;2022-11-23T05:33:44;95929.34;;;8.79;48.65
46574;BME280;32299;53.366;-1.544;2022-11-23T05:36:12;95921.04;;;8.50;48.67
46574;BME280;32299;53.366;-1.544;2022-11-23T05:38:39;95921.42;;;8.59;48.56
46574;BME280;32299;53.366;-1.544;2022-11-23T05:41:06;95915.17;;;8.61;48.48
46574;BME280;32299;53.366;-1.544;2022-11-23T05:43:34;95914.45;;;8.52;48.59
46574;BME280;32299;53.366;-1.544;2022-11-23T05:46:02;95915.62;;;8.79;48.47
46574;BME280;32299;53.366;-1.544;2022-11-23T05:48:29;95923.59;;;8.49;48.68
46574;BME280;32299;53.366;-1.544;2022-11-23T05:50:56;95918.46;;;9.07;48.27
46574;BME280;32299;53.366;-1.544;2022-11-23T05:53:23;95913.84;;;8.43;48.74
46574;BME280;32299;53.366;-1.544;2022-11-23T05:55:50;95915.01;;;8.49;48.45
46574;BME280;32299;53.366;-1.544;2022-11-23T05:58:17;95910.05;;;8.69;48.64
46574;BME280;32299;53.366;-1.544;2022-11-23T06:00:45;95902.96;;;8.64;48.63
46574;BME280;32299;53.366;-1.544;2022-11-23T06:03:12;95898.76;;;8.40;48.53
46574;BME280;32299;53.366;-1.544;2022-11-23T06:05:39;95895.31;;;8.86;48.70
46574;BME280;32299;53.366;-1.544;2022-11-23T06:08:06;95891.88;;;8.38;48.77
46574;BME280;32299;53.366;-1.544;2022-11-23T06:10:34;95895.09;;;8.92;48.45
46574;BME280;32299;53.366;-1.544;2022-11-23T06:13:02;95898.51;;;8.44;48.62
46574;BME280;32299;53.366;-1.544;2022-11-23T06:15:29;95890.15;;;8.75;48.53
46574;BME280;32299;53.366;-1.544;2022-11-23T06:17:58;95889.38;;;8.81;48.37
46574;BME280;32299;53.366;-1.544;2022-11-23T06:20:27;95877.62;;;8.49;48.51
46574;BME280;32299;53.366;-1.544;2022-11-23T06:22:55;95873.72;;;8.51;48.39
46574;BME280;32299;53.366;-1.544;2022-11-23T06:25:22;95874.08;;;8.93;48.49
46574;BME280;32299;53.366;-1.544;2022-11-23T06:27:53;95859.58;;;8.74;48.47
46574;BME280;32299;53.366;-1.544;2022-11-23T06:30:21;95852.20;;;8.76;48.37
46574;BME280;32299;53.366;-1.544;2022-11-23T06:32:49;95844.02;;;8.56;48.05
46574;BME280;32299;53.366;-1.544;2022-11-23T06:35:22;95844.38;;;9.09;48.07
46574;BME280;32299;53.366;-1.544;2022-11-23T06:37:49;95845.03;;;8.85;48.17
46574;BME280;32299;53.366;-1.544;2022-11-23T06:40:17;95841.35;;;8.49;48.35
46574;BME280;32299;53.366;-1.544;2022-11-23T06:42:44;95839.75;;;8.50;48.23
46574;BME280;32299;53.366;-1.544;2022-11-23T06:45:11;95841.10;;;8.84;48.16
46574;BME280;32299;53.366;-1.544;2022-11-23T06:47:39;95834.81;;;8.98;48.30
46574;BME280;32299;53.366;-1.544;2022-11-23T06:50:06;95827.27;;;9.00;48.23
46574;BME280;32299;53.366;-1.544;2022-11-23T06:52:34;95826.92;;;8.47;48.29
46574;BME280;32299;53.366;-1.544;2022-11-23T06:55:01;95827.23;;;8.40;48.43
46574;BME280;32299;53.366;-1.544;2022-11-23T06:57:27;95825.89;;;8.75;48.23
46574;BME280;32299;53.366;-1.544;2022-11-23T06:59:55;95823.84;;;8.69;48.35
46574;BME280;32299;53.366;-1.544;2022-11-23T07:02:22;95822.40;;;8.68;48.46
46574;BME280;32299;53.366;-1.544;2022-11-23T07:04:50;95827.43;;;8.63;48.54
46574;BME280;32299;53.366;-1.544;2022-11-23T07:07:17;95825.05;;;8.66;48.50
46574;BME280;32299;53.366;-1.544;2022-11-23T07:09:44;95827.31;;;8.90;48.13
46574;BME280;32299;53.366;-1.544;2022-11-23T07:12:11;95817.79;;;8.36;48.62
46574;BME280;32299;53.366;-1.544;2022-11-23T07:14:39;95816.01;;;8.45;48.45
46574;BME280;32299;53.366;-1.544;2022-11-23T07:17:06;95809.98;;;8.44;48.51
46574;BME280;32299;53.366;-1.544;2022-11-23T07:19:33;95806.52;;;8.55;48.32
46574;BME280;32299;53.366;-1.544;2022-11-23T07:22:01;95805.39;;;8.75;48.44
46574;BME280;32299;53.366;-1.544;2022-11-23T07:24:27;95800.17;;;8.53;48.34
46574;BME280;32299;53.366;-1.544;2022-11-23T07:26:55;95799.14;;;8.85;48.27
46574;BME280;32299;53.366;-1.544;2022-11-23T07:29:22;95797.84;;;8.81;48.29
46574;BME280;32299;53.366;-1.544;2022-11-23T07:31:49;95789.26;;;8.52;48.37
46574;BME280;32299;53.366;-1.544;2022-11-23T07:34:16;95787.37;;;8.56;48.42
46574;BME280;32299;53.366;-1.544;2022-11-23T07:36:44;95782.73;;;8.51;48.52
46574;BME280;32299;53.366;-1.544;2022-11-23T07:39:11;95775.10;;;8.47;48.62
46574;BME280;32299;53.366;-1.544;2022-11-23T07:41:38;95768.13;;;8.88;48.80
46574;BME280;32299;53.366;-1.544;2022-11-23T07:44:06;95767.00;;;8.45;48.70
46574;BME280;32299;53.366;-1.544;2022-11-23T07:46:33;95766.04;;;8.52;48.60
46574;BME280;32299;53.366;-1.544;2022-11-23T07:49:01;95763.84;;;8.55;48.64
46574;BME280;32299;53.366;-1.544;2022-11-23T07:51:29;95753.35;;;8.52;48.69
46574;BME280;32299;53.366;-1.544;2022-11-23T07:53:56;95751.55;;;8.79;48.67
46574;BME280;32299;53.366;-1.544;2022-11-23T07:56:23;95746.43;;;8.60;48.55
46574;BME280;32299;53.366;-1.544;2022-11-23T07:58:51;95731.40;;;8.54;48.69
46574;BME280;32299;53.366;-1.544;2022-11-23T08:01:18;95728.05;;;8.88;48.47
46574;BME280;32299;53.366;-1.544;2022-11-23T08:03:47;95724.62;;;8.60;48.67
46574;BME280;32299;53.366;-1.544;2022-11-23T08:06:14;95722.62;;;8.68;48.51
46574;BME280;32299;53.366;-1.544;2022-11-23T08:08:43;95730.61;;;8.93;48.45
46574;BME280;32299;53.366;-1.544;2022-11-23T08:11:10;95718.38;;;9.21;48.55
46574;BME280;32299;53.366;-1.544;2022-11-23T08:13:37;95718.03;;;8.99;48.58
46574;BME280;32299;53.366;-1.544;2022-11-23T08:16:05;95717.65;;;8.74;48.58
46574;BME280;32299;53.366;-1.544;2022-11-23T08:18:32;95709.80;;;8.72;48.68
46574;BME280;32299;53.366;-1.544;2022-11-23T08:21:01;95708.92;;;8.65;48.82
46574;BME280;32299;53.366;-1.544;2022-11-23T08:23:29;95707.49;;;8.71;48.87
46574;BME280;32299;53.366;-1.544;2022-11-23T08:25:56;95697.79;;;8.72;48.88
46574;BME280;32299;53.366;-1.544;2022-11-23T08:28:24;95693.88;;;8.82;48.72
46574;BME280;32299;53.366;-1.544;2022-11-23T08:30:51;95692.61;;;8.80;48.82
46574;BME280;32299;53.366;-1.544;2022-11-23T08:33:18;95689.88;;;8.87;48.69
46574;BME280;32299;53.366;-1.544;2022-11-23T08:35:45;95691.14;;;8.84;48.81
46574;BME280;32299;53.366;-1.544;2022-11-23T08:38:12;95689.40;;;8.88;48.79
46574;BME280;32299;53.366;-1.544;2022-11-23T08:40:40;95687.62;;;8.89;48.79
46574;BME280;32299;53.366;-1.544;2022-11-23T08:43:07;95683.85;;;8.92;48.80
46574;BME280;32299;53.366;-1.544;2022-11-23T08:45:36;95690.33;;;8.92;48.78
46574;BME280;32299;53.366;-1.544;2022-11-23T08:48:04;95693.28;;;8.98;48.76
46574;BME280;32299;53.366;-1.544;2022-11-23T08:50:31;95695.59;;;8.97;48.77
46574;BME280;32299;53.366;-1.544;2022-11-23T08:52:59;95691.82;;;9.04;48.68
46574;BME280;32299;53.366;-1.544;2022-11-23T08:55:27;95692.32;;;9.07;48.66
46574;BME280;32299;53.366;-1.544;2022-11-23T08:57:55;95687.59;;;9.07;48.69
46574;BME280;32299;53.366;-1.544;2022-11-23T09:00:22;95691.88;;;9.12;48.65
46574;BME280;32299;53.366;-1.544;2022-11-23T09:02:50;95700.56;;;9.14;48.67
46574;BME280;32299;53.366;-1.544;2022-11-23T09:05:17;95694.58;;;8.93;48.64
46574;BME280;32299;53.366;-1.544;2022-11-23T09:07:44;95690.74;;;9.17;48.64
46574;BME280;32299;53.366;-1.544;2022-11-23T09:10:11;95693.34;;;9.11;48.75
46574;BME280;32299;53.366;-1.544;2022-11-23T09:12:39;95706.33;;;9.15;48.75
46574;BME280;32299;53.366;-1.544;2022-11-23T09:15:07;95706.92;;;9.08;48.96
46574;BME280;32299;53.366;-1.544;2022-11-23T09:17:35;95713.19;;;8.94;48.93
46574;BME280;32299;53.366;-1.544;2022-11-23T09:20:03;95719.73;;;9.22;48.90
46574;BME280;32299;53.366;-1.544;2022-11-23T09:22:30;95717.63;;;8.99;48.93
46574;BME280;32299;53.366;-1.544;2022-11-23T09:24:57;95712.35;;;9.26;48.97
46574;BME280;32299;53.366;-1.544;2022-11-23T09:27:24;95709.87;;;9.10;48.90
46574;BME280;32299;53.366;-1.544;2022-11-23T09:29:52;95707.32;;;9.15;48.89
46574;BME280;32299;53.366;-1.544;2022-11-23T09:32:19;95702.66;;;9.18;48.91
46574;BME280;32299;53.366;-1.544;2022-11-23T09:34:46;95700.63;;;9.47;48.80
46574;BME280;32299;53.366;-1.544;2022-11-23T09:37:13;95712.23;;;9.22;48.93
46574;BME280;32299;53.366;-1.544;2022-11-23T09:39:41;95708.28;;;9.48;48.94
46574;BME280;32299;53.366;-1.544;2022-11-23T09:42:19;95710.61;;;9.53;48.98
46574;BME280;32299;53.366;-1.544;2022-11-23T09:44:58;95711.40;;;9.53;49.00
46574;BME280;32299;53.366;-1.544;2022-11-23T09:47:40;95712.83;;;9.32;49.16
46574;BME280;32299;53.366;-1.544;2022-11-23T09:50:13;95712.60;;;9.32;49.26
46574;BME280;32299;53.366;-1.544;2022-11-23T09:52:44;95712.18;;;9.40;49.27
46574;BME280;32299;53.366;-1.544;2022-11-23T09:55:20;95711.32;;;9.41;49.40
46574;BME280;32299;53.366;-1.544;2022-11-23T09:57:55;95711.86;;;9.47;49.49
46574;BME280;32299;53.366;-1.544;2022-11-23T10:00:26;95710.92;;;9.53;49.40
46574;BME280;32299;53.366;-1.544;2022-11-23T10:02:57;95716.18;;;9.58;49.45
46574;BME280;32299;53.366;-1.544;2022-11-23T10:05:25;95717.94;;;9.82;49.52
46574;BME280;32299;53.366;-1.544;2022-11-23T10:08:03;95722.04;;;9.64;49.50
46574;BME280;32299;53.366;-1.544;2022-11-23T10:10:43;95724.59;;;9.70;49.60
46574;BME280;32299;53.366;-1.544;2022-11-23T10:13:26;95724.12;;;9.53;49.64
46574;BME280;32299;53.366;-1.544;2022-11-23T10:16:11;95724.94;;;9.79;49.66
46574;BME280;32299;53.366;-1.544;2022-11-23T10:18:49;95736.44;;;9.63;49.71
46574;BME280;32299;53.366;-1.544;2022-11-23T10:21:27;95740.13;;;9.70;49.72
46574;BME280;32299;53.366;-1.544;2022-11-23T10:24:10;95741.91;;;9.73;49.75
46574;BME280;32299;53.366;-1.544;2022-11-23T10:26:41;95735.40;;;9.77;49.67
46574;BME280;32299;53.366;-1.544;2022-11-23T10:29:13;95732.44;;;9.81;49.88
46574;BME280;32299;53.366;-1.544;2022-11-23T10:31:46;95734.80;;;10.08;49.95
46574;BME280;32299;53.366;-1.544;2022-11-23T10:34:18;95741.14;;;10.10;50.05
46574;BME280;32299;53.366;-1.544;2022-11-23T10:36:50;95749.40;;;9.97;50.01
46574;BME280;32299;53.366;-1.544;2022-11-23T10:39:21;95749.68;;;10.03;50.06
46574;BME280;32299;53.366;-1.544;2022-11-23T10:41:48;95749.03;;;10.29;50.13
46574;BME280;32299;53.366;-1.544;2022-11-23T10:44:27;95749.72;;;9.94;50.15
46574;BME280;32299;53.366;-1.544;2022-11-23T10:46:55;95759.78;;;10.18;50.50
46574;BME280;32299;53.366;-1.544;2022-11-23T10:49:23;95761.65;;;10.30;50.54
46574;BME280;32299;53.366;-1.544;2022-11-23T10:51:54;95761.56;;;10.45;50.64
46574;BME280;32299;53.366;-1.544;2022-11-23T10:54:25;95765.07;;;10.45;50.94
46574;BME280;32299;53.366;-1.544;2022-11-23T10:56:53;95768.86;;;10.30;50.95
46574;BME280;32299;53.366;-1.544;2022-11-23T10:59:37;95772.73;;;10.41;51.03
46574;BME280;32299;53.366;-1.544;2022-11-23T11:02:21;95777.81;;;10.23;51.21
46574;BME280;32299;53.366;-1.544;2022-11-23T11:04:50;95778.82;;;10.58;51.28
46574;BME280;32299;53.366;-1.544;2022-11-23T11:07:22;95782.81;;;10.71;51.21
46574;BME280;32299;53.366;-1.544;2022-11-23T11:09:51;95783.32;;;10.58;51.17
46574;BME280;32299;53.366;-1.544;2022-11-23T11:12:20;95784.89;;;10.91;51.09
46574;BME280;32299;53.366;-1.544;2022-11-23T11:15:15;95783.45;;;10.93;51.13
46574;BME280;32299;53.366;-1.544;2022-11-23T11:17:43;95794.29;;;10.99;50.45
46574;BME280;32299;53.366;-1.544;2022-11-23T11:20:30;95794.87;;;10.78;51.02
46574;BME280;32299;53.366;-1.544;2022-11-23T11:23:00;95796.68;;;11.02;51.09
46574;BME280;32299;53.366;-1.544;2022-11-23T11:25:31;95795.29;;;11.07;51.10
46574;BME280;32299;53.366;-1.544;2022-11-23T11:27:59;95789.51;;;11.27;51.26
46574;BME280;32299;53.366;-1.544;2022-11-23T11:30:33;95791.69;;;11.06;51.67
46574;BME280;32299;53.366;-1.544;2022-11-23T11:33:09;95789.95;;;11.19;51.96
46574;BME280;32299;53.366;-1.544;2022-11-23T11:35:41;95792.21;;;11.29;52.10
46574;BME280;32299;53.366;-1.544;2022-11-23T11:38:14;95791.07;;;11.49;52.26
46574;BME280;32299;53.366;-1.544;2022-11-23T11:40:46;95791.79;;;11.62;52.74
46574;BME280;32299;53.366;-1.544;2022-11-23T11:43:16;95796.83;;;11.94;52.98
46574;BME280;32299;53.366;-1.544;2022-11-23T11:45:54;95794.77;;;11.79;53.26
46574;BME280;32299;53.366;-1.544;2022-11-23T11:48:24;95795.65;;;12.04;53.30
46574;BME280;32299;53.366;-1.544;2022-11-23T11:50:56;95800.40;;;12.24;52.97
46574;BME280;32299;53.366;-1.544;2022-11-23T11:53:29;95807.82;;;12.43;52.71
46574;BME280;32299;53.366;-1.544;2022-11-23T11:56:03;95806.80;;;12.61;52.36
46574;BME280;32299;53.366;-1.544;2022-11-23T11:58:31;95809.04;;;12.48;52.91
46574;BME280;32299;53.366;-1.544;2022-11-23T12:01:07;95802.46;;;12.65;51.98
46574;BME280;32299;53.366;-1.544;2022-11-23T12:03:41;95807.48;;;12.64;52.42
46574;BME280;32299;53.366;-1.544;2022-11-23T12:06:14;95821.69;;;12.94;51.63
46574;BME280;32299;53.366;-1.544;2022-11-23T12:08:49;95822.41;;;13.02;51.02
46574;BME280;32299;53.366;-1.544;2022-11-23T12:11:18;95826.61;;;13.10;51.09
46574;BME280;32299;53.366;-1.544;2022-11-23T12:13:45;95833.47;;;13.03;50.86
46574;BME280;32299;53.366;-1.544;2022-11-23T12:16:21;95832.47;;;13.13;50.64
46574;BME280;32299;53.366;-1.544;2022-11-23T12:18:59;95827.16;;;13.29;49.84
46574;BME280;32299;53.366;-1.544;2022-11-23T12:21:40;95835.85;;;13.28;49.65
46574;BME280;32299;53.366;-1.544;2022-11-23T12:24:17;95839.28;;;13.66;49.84
46574;BME280;32299;53.366;-1.544;2022-11-23T12:26:54;95848.60;;;13.29;48.92
46574;BME280;32299;53.366;-1.544;2022-11-23T12:29:38;95846.61;;;13.56;49.42
46574;BME280;32299;53.366;-1.544;2022-11-23T12:32:17;95853.87;;;13.50;49.30
46574;BME280;32299;53.366;-1.544;2022-11-23T12:35:01;95854.94;;;13.84;48.95
46574;BME280;32299;53.366;-1.544;2022-11-23T12:37:40;95857.32;;;13.61;48.67
46574;BME280;32299;53.366;-1.544;2022-11-23T12:40:28;95865.13;;;14.02;48.67
46574;BME280;32299;53.366;-1.544;2022-11-23T12:43:00;95862.28;;;13.86;48.38
46574;BME280;32299;53.366;-1.544;2022-11-23T12:45:38;95867.63;;;13.82;47.77
46574;BME280;32299;53.366;-1.544;2022-11-23T12:48:21;95868.72;;;13.78;47.97
46574;BME280;32299;53.366;-1.544;2022-11-23T12:51:01;95875.52;;;14.21;47.76
46574;BME280;32299;53.366;-1.544;2022-11-23T12:53:39;95878.23;;;14.27;47.36
46574;BME280;32299;53.366;-1.544;2022-11-23T12:56:19;95877.66;;;14.24;47.18
46574;BME280;32299;53.366;-1.544;2022-11-23T12:58:52;95874.96;;;14.02;47.15
46574;BME280;32299;53.366;-1.544;2022-11-23T13:01:22;95876.86;;;14.43;47.49
46574;BME280;32299;53.366;-1.544;2022-11-23T13:04:08;95880.13;;;14.57;47.32
46574;BME280;32299;53.366;-1.544;2022-11-23T13:06:58;95878.38;;;14.63;46.65
46574;BME280;32299;53.366;-1.544;2022-11-23T13:09:43;95881.21;;;14.93;46.38
46574;BME280;32299;53.366;-1.544;2022-11-23T13:12:24;95882.49;;;14.38;45.85